Ballston Spa, New York
Current Conditions -  °F | °C
As of 9:51 AM on Wednesday 26 Nov 2014 (Local Time) from KALB Reporting Station
Overcast Overcast  
Wind Chill: 34°   Ceiling: 7000
Heat Index: 38°   Visibility: 10mi
Dew Point: 26°   Wind: 5mph
Humidity: 62%   Direction: 350°N
Pressure: 30.17"   Gusts: NA
Location:  43°N, 73.85°W
Report Text: KALB 261451Z 35004KT 10SM FEW040 OVC070 03/M03 A3017 RMK AO2 SLP219 VIRGA ALQDS SCSL N T00331033 58015
Loading
Personal Weather Stations






























Interactive Weather Map New forecast layout! Learn more

10-Day Weather Forecast

Advertisements
Track Severe Weather on mobile